Time;durP1;ratioP1;P1;durP2;ratioP2;P2;SDS_P1;SDS_P2;PMS_P1;PMS_P2;Temp;Humidity;BMP_temperature;BMP_pressure;BME280_temperature;BME280_humidity;BME280_pressure;Samples;Min_cycle;Max_cycle;Signal;HPM_P1;HPM_P2
2023/07/05 00:00:05;;;;;;;11.75;8.63;;;15.40;99.90;;;;;;7378422;19;20045;-64
2023/07/05 00:02:31;;;;;;;11.07;6.60;;;15.30;99.90;;;;;;7377220;19;20472;-64
2023/07/05 00:04:58;;;;;;;11.15;7.72;;;15.40;99.90;;;;;;7376112;19;20022;-65
2023/07/05 00:07:24;;;;;;;12.00;6.72;;;15.30;99.90;;;;;;7376755;19;20810;-65
2023/07/05 00:09:50;;;;;;;11.98;7.50;;;15.30;99.90;;;;;;7378408;19;20037;-65
2023/07/05 00:12:17;;;;;;;11.93;9.13;;;15.30;99.90;;;;;;7377618;19;20018;-66
2023/07/05 00:14:43;;;;;;;12.45;7.47;;;15.20;99.90;;;;;;7375964;19;20492;-65
2023/07/05 00:17:10;;;;;;;13.95;8.25;;;15.20;99.90;;;;;;7377743;19;20026;-65
2023/07/05 00:19:36;;;;;;;15.25;8.35;;;15.20;99.90;;;;;;7377541;19;20470;-64
2023/07/05 00:22:04;;;;;;;14.00;7.80;;;15.20;99.90;;;;;;7376155;19;20021;-65
2023/07/05 00:24:30;;;;;;;13.07;7.57;;;15.20;99.90;;;;;;7376052;19;20022;-64
2023/07/05 00:26:56;;;;;;;13.00;9.80;;;15.20;99.90;;;;;;7375808;19;20772;-65
2023/07/05 00:29:22;;;;;;;11.13;7.32;;;15.20;99.90;;;;;;7373751;19;20033;-64
2023/07/05 00:31:49;;;;;;;11.50;7.72;;;15.10;99.90;;;;;;7374693;19;20022;-65
2023/07/05 00:34:15;;;;;;;15.02;8.52;;;15.10;99.90;;;;;;7375606;19;20022;-66
2023/07/05 00:36:41;;;;;;;12.57;8.52;;;15.20;99.90;;;;;;7370569;19;20089;-64
2023/07/05 00:39:07;;;;;;;13.00;7.82;;;15.20;99.90;;;;;;7372657;19;20747;-65
2023/07/05 00:41:34;;;;;;;12.07;9.57;;;15.20;99.90;;;;;;7373517;19;20098;-65
2023/07/05 00:44:01;;;;;;;11.93;8.27;;;15.20;99.90;;;;;;7377992;19;20334;-65
2023/07/05 00:46:31;;;;;;;15.75;10.43;;;15.10;99.90;;;;;;7372427;19;20524;-65
2023/07/05 00:49:12;;;;;;;11.82;8.32;;;15.10;99.90;;;;;;7375136;19;20087;-65
2023/07/05 00:51:43;;;;;;;12.60;8.70;;;15.10;99.90;;;;;;7376503;19;20048;-64
2023/07/05 00:54:10;;;;;;;12.85;8.07;;;15.10;99.90;;;;;;7371630;19;20480;-65
2023/07/05 00:56:54;;;;;;;12.63;8.00;;;15.10;99.90;;;;;;7377835;19;20022;-65
2023/07/05 00:59:23;;;;;;;14.13;9.30;;;15.10;99.90;;;;;;7375626;19;20025;-65
2023/07/05 01:01:50;;;;;;;15.23;9.45;;;15.10;99.90;;;;;;7374870;19;20018;-64
2023/07/05 01:04:18;;;;;;;15.85;8.23;;;15.10;99.90;;;;;;7374556;19;20019;-67
2023/07/05 01:06:47;;;;;;;12.73;8.23;;;15.20;99.90;;;;;;7376169;19;20759;-65
2023/07/05 01:09:15;;;;;;;13.68;9.65;;;15.20;99.90;;;;;;7371137;19;20022;-65
2023/07/05 01:12:02;;;;;;;11.40;8.68;;;15.20;99.90;;;;;;7373189;19;20033;-64
2023/07/05 01:15:01;;;;;;;11.38;8.73;;;15.20;99.90;;;;;;7373634;19;20178;-64
2023/07/05 01:17:51;;;;;;;16.83;10.68;;;15.10;99.90;;;;;;7374630;19;20018;-66
2023/07/05 01:20:39;;;;;;;16.13;10.80;;;15.10;99.90;;;;;;7371408;19;20022;-63
2023/07/05 01:23:29;;;;;;;20.00;11.68;;;15.10;99.90;;;;;;7368688;19;20018;-63
2023/07/05 01:26:04;;;;;;;18.13;11.32;;;15.00;99.90;;;;;;7376524;19;20074;-63
2023/07/05 01:29:00;;;;;;;21.63;13.90;;;15.00;99.90;;;;;;7375505;19;20041;-64
2023/07/05 01:31:45;;;;;;;19.02;12.75;;;15.00;99.90;;;;;;7373074;19;20035;-64
2023/07/05 01:34:39;;;;;;;16.92;12.30;;;14.90;99.90;;;;;;7376516;19;20018;-63
2023/07/05 01:37:09;;;;;;;17.02;11.90;;;14.80;99.90;;;;;;7377470;19;20018;-62
2023/07/05 01:39:36;;;;;;;20.25;13.77;;;14.80;99.90;;;;;;7376411;19;20018;-62
2023/07/05 01:42:04;;;;;;;18.77;13.13;;;14.70;99.90;;;;;;7372503;19;20010;-63
2023/07/05 01:44:31;;;;;;;20.33;14.60;;;14.70;99.90;;;;;;7376786;19;20025;-63
2023/07/05 01:47:10;;;;;;;22.08;15.50;;;14.60;99.90;;;;;;7376375;19;20022;-62
2023/07/05 01:50:04;;;;;;;20.52;15.38;;;14.60;99.90;;;;;;7373415;19;20019;-62
2023/07/05 01:52:34;;;;;;;20.27;13.75;;;14.60;99.90;;;;;;7377806;19;20018;-62
2023/07/05 01:55:19;;;;;;;18.48;12.57;;;14.60;99.90;;;;;;7376024;19;20018;-62
2023/07/05 01:57:56;;;;;;;19.30;13.02;;;14.50;99.90;;;;;;7376710;19;20877;-64
2023/07/05 02:00:26;;;;;;;22.92;14.27;;;14.50;99.90;;;;;;7371394;19;20021;-64
2023/07/05 02:03:07;;;;;;;23.60;14.77;;;14.40;99.90;;;;;;7372409;19;20485;-64
2023/07/05 02:05:34;;;;;;;24.08;16.90;;;14.40;99.90;;;;;;7371486;19;20022;-65
2023/07/05 02:08:00;;;;;;;19.58;14.13;;;14.40;99.90;;;;;;7374180;19;20011;-65
2023/07/05 02:10:27;;;;;;;18.40;14.77;;;14.40;99.90;;;;;;7373742;19;20095;-65
2023/07/05 02:12:58;;;;;;;23.92;16.08;;;14.40;99.90;;;;;;7372365;19;20086;-65
2023/07/05 02:15:26;;;;;;;21.00;16.08;;;14.40;99.90;;;;;;7373089;19;20019;-62
2023/07/05 02:17:53;;;;;;;22.58;16.42;;;14.40;99.90;;;;;;7372452;19;20021;-62
2023/07/05 02:20:19;;;;;;;25.92;16.63;;;14.40;99.90;;;;;;7372882;19;20022;-62
2023/07/05 02:22:46;;;;;;;21.65;18.33;;;14.40;99.90;;;;;;7370707;19;20014;-67
2023/07/05 02:25:13;;;;;;;20.83;17.10;;;14.30;99.90;;;;;;7372099;19;20019;-63
2023/07/05 02:27:39;;;;;;;23.30;17.38;;;14.30;99.90;;;;;;7373042;19;20018;-62
2023/07/05 02:30:09;;;;;;;22.98;16.52;;;14.40;99.90;;;;;;7374355;19;20063;-62
2023/07/05 02:32:36;;;;;;;22.38;18.35;;;14.30;99.90;;;;;;7374721;19;20101;-62
2023/07/05 02:35:03;;;;;;;20.98;18.75;;;14.40;99.90;;;;;;7374580;19;20022;-62
2023/07/05 02:37:35;;;;;;;23.77;19.45;;;14.30;99.90;;;;;;7373170;19;20025;-62
2023/07/05 02:40:01;;;;;;;25.23;17.98;;;14.30;99.90;;;;;;7368141;19;20022;-63
2023/07/05 02:42:29;;;;;;;22.05;18.38;;;14.30;99.90;;;;;;7373616;19;20026;-63
2023/07/05 02:44:56;;;;;;;24.10;18.17;;;14.30;99.90;;;;;;7374042;19;20042;-63
2023/07/05 02:47:23;;;;;;;27.00;19.63;;;14.30;99.90;;;;;;7371962;19;20022;-62
2023/07/05 02:49:50;;;;;;;26.63;21.25;;;14.40;99.90;;;;;;7376866;19;20047;-61
2023/07/05 02:52:16;;;;;;;22.85;19.98;;;14.30;99.90;;;;;;7376768;19;20588;-61
2023/07/05 02:54:43;;;;;;;22.85;19.52;;;14.40;99.90;;;;;;7381944;19;20033;-61
2023/07/05 02:57:09;;;;;;;28.60;21.00;;;14.30;99.90;;;;;;7383245;19;20059;-61
2023/07/05 02:59:35;;;;;;;26.02;21.40;;;14.40;99.90;;;;;;7380778;19;20018;-61
2023/07/05 03:02:02;;;;;;;25.95;21.38;;;14.40;99.90;;;;;;7380704;19;20026;-62
2023/07/05 03:04:28;;;;;;;28.33;21.52;;;14.30;99.90;;;;;;7379879;19;20373;-61
2023/07/05 03:06:57;;;;;;;29.85;21.35;;;14.40;99.90;;;;;;7383332;19;21395;-62
2023/07/05 03:09:23;;;;;;;22.50;19.08;;;14.40;99.90;;;;;;7374883;19;20018;-63
2023/07/05 03:11:50;;;;;;;27.17;20.98;;;14.40;99.90;;;;;;7378706;19;20706;-62
2023/07/05 03:14:16;;;;;;;27.73;18.55;;;14.40;99.90;;;;;;7380155;19;20032;-62
2023/07/05 03:16:42;;;;;;;33.22;21.30;;;14.40;99.90;;;;;;7379172;19;20520;-63
2023/07/05 03:19:09;;;;;;;26.05;20.63;;;14.40;99.90;;;;;;7382932;19;20082;-62
2023/07/05 03:21:36;;;;;;;28.70;20.25;;;14.40;99.90;;;;;;7378374;19;20018;-62
2023/07/05 03:24:05;;;;;;;25.45;21.38;;;14.50;99.90;;;;;;7380546;19;20049;-62
2023/07/05 03:26:52;;;;;;;25.48;19.42;;;14.50;99.90;;;;;;7381399;19;20758;-62
2023/07/05 03:29:20;;;;;;;27.83;20.85;;;14.50;99.90;;;;;;7378935;19;20864;-62
2023/07/05 03:31:46;;;;;;;25.75;20.15;;;14.60;99.90;;;;;;7381674;19;20022;-62
2023/07/05 03:34:12;;;;;;;21.08;18.10;;;14.60;99.90;;;;;;7382904;19;20026;-63
2023/07/05 03:36:38;;;;;;;28.92;20.55;;;14.60;99.90;;;;;;7380836;19;20051;-62
2023/07/05 03:39:05;;;;;;;27.05;20.02;;;14.60;99.90;;;;;;7381511;19;20022;-62
2023/07/05 03:41:31;;;;;;;28.05;21.48;;;14.60;99.90;;;;;;7379093;19;20065;-62
2023/07/05 03:44:02;;;;;;;25.20;18.60;;;14.70;99.90;;;;;;7381041;19;20018;-62
2023/07/05 03:46:29;;;;;;;24.13;18.02;;;14.70;99.90;;;;;;7381579;19;20022;-61
2023/07/05 03:48:55;;;;;;;26.80;18.40;;;14.70;99.90;;;;;;7381837;19;20595;-62
2023/07/05 03:51:23;;;;;;;28.85;20.73;;;14.70;99.90;;;;;;7382680;19;20030;-62
2023/07/05 03:53:50;;;;;;;25.15;20.63;;;14.70;99.90;;;;;;7381919;19;20019;-62
2023/07/05 03:56:17;;;;;;;20.15;18.00;;;14.80;99.90;;;;;;7380657;19;20658;-63
2023/07/05 03:58:44;;;;;;;20.33;14.65;;;14.90;99.90;;;;;;7378771;19;20837;-63
2023/07/05 04:01:19;;;;;;;22.73;19.83;;;15.00;99.90;;;;;;7380803;19;20010;-63
2023/07/05 04:03:47;;;;;;;22.00;18.92;;;15.00;99.90;;;;;;7377748;19;20014;-63
2023/07/05 04:06:15;;;;;;;21.02;18.63;;;15.10;99.90;;;;;;7378656;19;20022;-64
2023/07/05 04:08:42;;;;;;;24.73;18.90;;;15.10;99.90;;;;;;7374366;19;20097;-64
2023/07/05 04:11:09;;;;;;;20.83;17.42;;;15.20;99.90;;;;;;7375928;19;20378;-64
2023/07/05 04:13:36;;;;;;;20.30;17.05;;;15.20;99.90;;;;;;7377643;19;20573;-64
2023/07/05 04:16:15;;;;;;;19.33;15.60;;;15.20;99.90;;;;;;7378769;19;20063;-63
2023/07/05 04:18:42;;;;;;;19.50;14.52;;;15.30;99.90;;;;;;7379051;19;20020;-64
2023/07/05 04:21:10;;;;;;;19.25;12.68;;;15.30;99.90;;;;;;7377280;19;20018;-64
2023/07/05 04:23:38;;;;;;;14.40;12.05;;;15.30;99.90;;;;;;7378380;19;20616;-64
2023/07/05 04:26:07;;;;;;;14.38;11.13;;;15.30;99.90;;;;;;7374737;19;20521;-64
2023/07/05 04:28:35;;;;;;;13.63;10.38;;;15.30;99.90;;;;;;7377839;19;20022;-63
2023/07/05 04:31:07;;;;;;;11.88;9.40;;;15.30;99.90;;;;;;7375636;19;20133;-64
2023/07/05 04:33:33;;;;;;;11.88;9.02;;;15.30;99.90;;;;;;7373140;19;20078;-64
2023/07/05 04:36:00;;;;;;;10.95;9.43;;;15.30;99.90;;;;;;7370207;19;20026;-65
2023/07/05 04:38:27;;;;;;;11.77;7.90;;;15.30;99.90;;;;;;7379513;19;20026;-62
2023/07/05 04:40:57;;;;;;;7.88;5.93;;;15.30;99.90;;;;;;7374144;19;20077;-64
2023/07/05 04:43:24;;;;;;;8.02;5.22;;;15.20;99.90;;;;;;7378464;19;20018;-63
2023/07/05 04:45:55;;;;;;;6.50;4.55;;;15.00;99.90;;;;;;7376038;19;20049;-64
2023/07/05 04:48:23;;;;;;;7.55;4.88;;;14.90;99.90;;;;;;7373692;19;20010;-64
2023/07/05 04:50:52;;;;;;;7.35;4.75;;;14.70;99.90;;;;;;7377695;19;20018;-66
2023/07/05 04:53:19;;;;;;;9.55;5.00;;;14.60;99.90;;;;;;7376159;19;20382;-66
2023/07/05 04:55:47;;;;;;;7.20;5.07;;;14.50;99.90;;;;;;7376240;19;20018;-63
2023/07/05 04:58:15;;;;;;;7.65;4.85;;;14.50;99.90;;;;;;7377294;19;20014;-64
2023/07/05 05:00:46;;;;;;;7.47;4.97;;;14.40;99.90;;;;;;7375179;19;20018;-64
2023/07/05 05:03:13;;;;;;;7.13;5.17;;;14.30;99.90;;;;;;7376736;19;20021;-64
2023/07/05 05:05:45;;;;;;;7.45;5.78;;;14.20;99.90;;;;;;7375109;19;20070;-63
2023/07/05 05:08:11;;;;;;;;;;;14.10;99.90;;;;;;7372283;19;20688;-63
2023/07/05 05:10:38;;;;;;;10.95;6.53;;;14.10;99.90;;;;;;7375553;19;20275;-67
2023/07/05 05:13:08;;;;;;;9.63;6.38;;;14.10;99.90;;;;;;7375971;19;20015;-66
2023/07/05 05:15:38;;;;;;;8.40;6.07;;;14.20;99.90;;;;;;7374164;19;20859;-67
2023/07/05 05:18:09;;;;;;;9.50;6.93;;;14.20;99.90;;;;;;7376219;19;20045;-66
2023/07/05 05:20:38;;;;;;;9.50;5.90;;;14.40;99.90;;;;;;7374630;19;20053;-67
2023/07/05 05:23:05;;;;;;;11.52;6.60;;;14.70;99.90;;;;;;7376199;19;20015;-66
2023/07/05 05:25:31;;;;;;;9.85;6.05;;;14.80;99.90;;;;;;7375003;19;20694;-68
2023/07/05 05:28:02;;;;;;;10.15;5.95;;;14.70;99.90;;;;;;7372520;19;20077;-65
2023/07/05 05:30:31;;;;;;;8.45;5.75;;;14.70;99.90;;;;;;7371557;19;20086;-64
2023/07/05 05:32:58;;;;;;;6.82;5.50;;;14.90;99.90;;;;;;7371205;19;20023;-64
2023/07/05 05:35:24;;;;;;;8.43;5.20;;;15.30;99.90;;;;;;7369567;19;20110;-65
2023/07/05 05:37:50;;;;;;;6.10;4.90;;;15.50;99.90;;;;;;7369325;19;20017;-74
2023/07/05 05:40:16;;;;;;;6.68;4.78;;;15.50;99.90;;;;;;7373622;19;20713;-68
2023/07/05 05:42:43;;;;;;;7.43;4.95;;;15.30;99.90;;;;;;7375843;19;20022;-65
2023/07/05 05:45:09;;;;;;;7.43;5.00;;;15.10;99.90;;;;;;7375288;19;20014;-64
2023/07/05 05:47:36;;;;;;;5.93;5.07;;;15.00;99.90;;;;;;7374059;19;20014;-64
2023/07/05 05:50:05;;;;;;;10.38;6.90;;;14.90;99.90;;;;;;7379106;19;20018;-63
2023/07/05 05:52:33;;;;;;;7.18;5.50;;;14.90;99.90;;;;;;7377369;19;20032;-63
2023/07/05 05:54:59;;;;;;;6.53;5.00;;;14.90;99.90;;;;;;7377254;19;20474;-64
2023/07/05 05:57:26;;;;;;;7.47;5.22;;;14.80;99.90;;;;;;7375954;19;20021;-64
2023/07/05 05:59:52;;;;;;;7.13;4.80;;;14.80;99.90;;;;;;7377188;19;20015;-63
2023/07/05 06:02:19;;;;;;;7.05;5.00;;;14.70;99.90;;;;;;7373783;19;20030;-65
2023/07/05 06:04:45;;;;;;;10.50;6.85;;;14.80;99.90;;;;;;7376259;19;20014;-63
2023/07/05 06:07:11;;;;;;;7.03;4.80;;;14.80;99.90;;;;;;7378133;19;20106;-63
2023/07/05 06:09:46;;;;;;;6.80;4.70;;;14.80;99.90;;;;;;7372707;19;20026;-63
2023/07/05 06:12:12;;;;;;;8.25;6.03;;;15.10;99.90;;;;;;7378823;19;20378;-63
2023/07/05 06:14:39;;;;;;;8.23;5.28;;;15.30;99.90;;;;;;7373709;19;20023;-64
2023/07/05 06:17:06;;;;;;;6.97;4.28;;;15.40;99.90;;;;;;7374791;19;20010;-63
2023/07/05 06:19:32;;;;;;;5.55;4.28;;;15.70;99.90;;;;;;7375549;19;20018;-63
2023/07/05 06:22:01;;;;;;;6.60;3.60;;;16.20;99.90;;;;;;7374578;19;20022;-63
2023/07/05 06:24:28;;;;;;;10.30;5.15;;;16.50;99.90;;;;;;7373941;19;20497;-63
2023/07/05 06:26:54;;;;;;;7.35;4.43;;;16.80;99.90;;;;;;7373302;19;20818;-64
2023/07/05 06:29:21;;;;;;;7.97;5.93;;;16.80;99.90;;;;;;7378657;19;20016;-64
2023/07/05 06:31:48;;;;;;;8.52;4.50;;;16.80;99.90;;;;;;7381178;19;20754;-67
2023/07/05 06:34:14;;;;;;;8.60;4.53;;;16.90;99.90;;;;;;7383269;19;20362;-64
2023/07/05 06:36:40;;;;;;;7.70;4.38;;;17.10;99.90;;;;;;7382793;19;20093;-65
2023/07/05 06:39:07;;;;;;;8.18;3.80;;;17.30;99.90;;;;;;7383029;19;20015;-64
2023/07/05 06:41:33;;;;;;;7.70;4.35;;;17.40;99.90;;;;;;7379996;19;20018;-64
2023/07/05 06:43:59;;;;;;;9.30;4.32;;;17.40;99.90;;;;;;7383440;19;20026;-63
2023/07/05 06:46:25;;;;;;;6.25;4.35;;;17.30;99.90;;;;;;7379840;19;20481;-63
2023/07/05 06:48:52;;;;;;;6.78;3.85;;;17.20;99.90;;;;;;7379640;19;20026;-63
2023/07/05 06:51:18;;;;;;;6.97;4.57;;;17.50;99.90;;;;;;7378825;19;20796;-63
2023/07/05 06:53:45;;;;;;;7.20;3.70;;;17.40;99.90;;;;;;7381751;19;20834;-64
2023/07/05 06:56:11;;;;;;;6.85;3.70;;;17.20;99.90;;;;;;7382899;19;20118;-64
2023/07/05 06:58:37;;;;;;;7.93;3.70;;;17.20;99.90;;;;;;7380383;19;20077;-64
2023/07/05 07:01:04;;;;;;;11.30;4.57;;;16.80;99.90;;;;;;7382769;19;20101;-64
2023/07/05 07:03:30;;;;;;;11.00;5.43;;;16.40;99.90;;;;;;7381553;19;20109;-63
2023/07/05 07:05:58;;;;;;;5.90;3.63;;;16.30;99.90;;;;;;7381765;19;20029;-63
2023/07/05 07:08:29;;;;;;;6.47;4.45;;;16.50;99.90;;;;;;7379839;19;20018;-61
2023/07/05 07:11:00;;;;;;;6.40;4.00;;;16.80;99.90;;;;;;7384035;19;20033;-62
2023/07/05 07:13:27;;;;;;;6.78;3.85;;;17.00;99.90;;;;;;7378999;19;20764;-62
2023/07/05 07:16:05;;;;;;;6.47;3.30;;;17.40;99.90;;;;;;7378420;19;20021;-65
2023/07/05 07:18:31;;;;;;;6.25;3.45;;;17.60;99.90;;;;;;7376877;19;20364;-65
2023/07/05 07:20:59;;;;;;;6.40;4.13;;;17.40;99.90;;;;;;7382261;19;20025;-65
2023/07/05 07:23:26;;;;;;;9.77;3.97;;;16.90;99.90;;;;;;7380730;19;20022;-65
2023/07/05 07:26:00;;;;;;;9.88;4.28;;;16.20;99.90;;;;;;7382233;19;20029;-65
2023/07/05 07:28:27;;;;;;;7.57;5.10;;;15.80;99.90;;;;;;7376400;19;20015;-64
2023/07/05 07:30:57;;;;;;;6.90;4.22;;;15.30;99.90;;;;;;7382804;19;20011;-64
2023/07/05 07:33:25;;;;;;;9.00;5.32;;;15.00;99.90;;;;;;7380008;19;20021;-61
2023/07/05 07:35:51;;;;;;;9.75;5.28;;;14.80;99.90;;;;;;7378380;19;20026;-62
2023/07/05 07:38:17;;;;;;;10.82;6.88;;;14.60;99.90;;;;;;7378432;19;20429;-62
2023/07/05 07:40:47;;;;;;;7.93;4.75;;;14.20;99.90;;;;;;7374940;19;20015;-62
2023/07/05 07:43:13;;;;;;;10.70;5.40;;;13.90;99.90;;;;;;7382313;19;20021;-61
2023/07/05 07:45:39;;;;;;;7.55;3.65;;;13.50;99.90;;;;;;7385209;19;20010;-61
2023/07/05 07:48:06;;;;;;;6.43;2.38;;;13.00;99.90;;;;;;7383531;19;20022;-61
2023/07/05 07:50:34;;;;;;;11.82;3.40;;;12.50;99.90;;;;;;7378135;19;20450;-62
2023/07/05 07:53:00;;;;;;;3.47;1.48;;;12.40;99.90;;;;;;7379605;19;20015;-62
2023/07/05 07:55:29;;;;;;;4.38;1.73;;;12.20;99.90;;;;;;7375877;19;20380;-62
2023/07/05 07:57:55;;;;;;;4.28;2.55;;;12.00;99.90;;;;;;7381558;19;20075;-61
2023/07/05 08:00:23;;;;;;;2.70;1.80;;;12.00;99.90;;;;;;7377938;19;20022;-62
2023/07/05 08:02:49;;;;;;;3.40;1.83;;;12.00;99.90;;;;;;7376975;19;20508;-62
2023/07/05 08:05:17;;;;;;;3.90;1.90;;;12.00;99.90;;;;;;7375592;19;20026;-62
2023/07/05 08:07:43;;;;;;;5.13;1.90;;;12.00;99.90;;;;;;7377626;19;20019;-63
2023/07/05 08:10:09;;;;;;;4.22;1.80;;;12.10;99.90;;;;;;7380654;19;20010;-62
2023/07/05 08:12:36;;;;;;;5.25;1.90;;;12.10;99.90;;;;;;7379162;19;20022;-62
2023/07/05 08:15:02;;;;;;;3.33;1.58;;;12.10;99.90;;;;;;7377333;19;21062;-61
2023/07/05 08:17:30;;;;;;;3.90;1.25;;;12.00;99.90;;;;;;7380197;19;20025;-62
2023/07/05 08:19:57;;;;;;;2.63;1.27;;;11.80;99.90;;;;;;7380757;19;20839;-62
2023/07/05 08:22:24;;;;;;;2.88;1.20;;;11.80;99.90;;;;;;7378812;19;20019;-62
2023/07/05 08:24:50;;;;;;;3.17;1.23;;;11.80;99.90;;;;;;7379484;19;20037;-60
2023/07/05 08:27:16;;;;;;;2.30;1.10;;;11.80;99.90;;;;;;7377063;19;20014;-63
2023/07/05 08:29:43;;;;;;;9.57;5.35;;;11.70;99.90;;;;;;7376076;19;20102;-61
2023/07/05 08:32:09;;;;;;;2.42;1.25;;;11.80;99.90;;;;;;7379315;19;20015;-61
2023/07/05 08:34:36;;;;;;;7.35;3.35;;;11.70;99.90;;;;;;7378257;19;20093;-61
2023/07/05 08:37:03;;;;;;;2.95;1.33;;;11.70;99.90;;;;;;7379317;19;20089;-61
2023/07/05 08:39:30;;;;;;;5.68;4.45;;;11.80;99.90;;;;;;7372501;19;20370;-61
2023/07/05 08:42:08;;;;;;;3.47;1.95;;;11.80;99.90;;;;;;7378643;19;20018;-61
2023/07/05 08:44:40;;;;;;;4.22;1.80;;;11.80;99.90;;;;;;7376783;19;20032;-61
2023/07/05 08:47:12;;;;;;;7.00;3.67;;;11.80;99.90;;;;;;7377850;19;20116;-61
2023/07/05 08:49:59;;;;;;;4.25;1.58;;;11.70;99.90;;;;;;7374320;19;20081;-61
2023/07/05 08:52:31;;;;;;;4.63;1.90;;;11.70;99.90;;;;;;7378177;19;20412;-62
2023/07/05 08:55:03;;;;;;;2.92;1.88;;;11.70;99.90;;;;;;7381738;19;20677;-61
2023/07/05 08:57:32;;;;;;;;;;;11.70;99.90;;;;;;7380399;19;20021;-63
2023/07/05 09:00:11;;;;;;;5.15;2.80;;;11.80;99.90;;;;;;7377610;19;20290;-61
2023/07/05 09:02:38;;;;;;;6.38;2.50;;;11.80;99.90;;;;;;7377856;19;20030;-61
2023/07/05 09:05:33;;;;;;;7.57;3.08;;;11.90;99.90;;;;;;7376882;19;20041;-61
2023/07/05 09:08:35;;;;;;;5.93;2.20;;;11.90;99.90;;;;;;7376357;19;20380;-66
2023/07/05 09:11:10;;;;;;;4.88;2.33;;;11.90;99.90;;;;;;7377866;19;20014;-63
2023/07/05 09:13:39;;;;;;;6.13;2.50;;;11.80;99.90;;;;;;7376505;19;20018;-62
2023/07/05 09:16:14;;;;;;;5.47;2.10;;;11.90;99.90;;;;;;7376794;19;20015;-62
2023/07/05 09:19:12;;;;;;;5.82;1.70;;;11.90;99.90;;;;;;7376923;19;20049;-62
2023/07/05 09:21:46;;;;;;;4.15;1.88;;;11.90;99.90;;;;;;7376849;19;20026;-63
2023/07/05 09:24:39;;;;;;;9.88;2.53;;;11.90;99.90;;;;;;7379844;19;20033;-62
2023/07/05 09:27:23;;;;;;;12.10;3.60;;;11.90;99.90;;;;;;7376629;19;20022;-63
2023/07/05 09:30:16;;;;;;;8.18;2.58;;;11.90;99.90;;;;;;7376040;19;20026;-63
2023/07/05 09:32:49;;;;;;;6.85;2.80;;;11.80;99.90;;;;;;7376286;19;20025;-62
2023/07/05 09:35:20;;;;;;;9.70;3.05;;;11.80;99.90;;;;;;7376366;19;20040;-63
2023/07/05 09:38:13;;;;;;;14.93;3.22;;;11.80;99.90;;;;;;7378593;19;20710;-63
2023/07/05 09:40:45;;;;;;;10.18;3.72;;;11.80;99.90;;;;;;7375419;19;20026;-63
2023/07/05 09:43:29;;;;;;;12.40;3.70;;;11.80;99.90;;;;;;7374629;19;20034;-61
2023/07/05 09:45:58;;;;;;;7.38;3.67;;;11.80;99.90;;;;;;7367174;19;20021;-61
2023/07/05 09:48:27;;;;;;;11.50;4.38;;;11.90;99.90;;;;;;7370985;19;20022;-60
2023/07/05 09:50:53;;;;;;;9.82;3.95;;;11.90;99.90;;;;;;7370444;19;20021;-61
2023/07/05 09:53:28;;;;;;;11.68;4.63;;;12.00;99.90;;;;;;7368695;19;20023;-61
2023/07/05 09:56:08;;;;;;;11.73;4.97;;;11.90;99.90;;;;;;7362006;19;20102;-61
2023/07/05 09:58:36;;;;;;;13.20;3.95;;;12.00;99.90;;;;;;7362850;19;20014;-61
2023/07/05 10:01:06;;;;;;;11.20;3.42;;;12.10;99.90;;;;;;7369854;19;20390;-61
2023/07/05 10:03:35;;;;;;;13.30;4.45;;;12.00;99.90;;;;;;7364360;19;20098;-58
2023/07/05 10:06:08;;;;;;;14.70;4.13;;;12.00;99.90;;;;;;7365789;19;20632;-58
2023/07/05 10:08:46;;;;;;;13.23;3.85;;;12.00;99.90;;;;;;7360822;19;20018;-59
2023/07/05 10:11:26;;;;;;;13.85;4.00;;;12.00;99.90;;;;;;7363636;19;20041;-58
2023/07/05 10:14:07;;;;;;;11.98;2.85;;;12.10;99.90;;;;;;7366896;19;20581;-62
2023/07/05 10:17:08;;;;;;;10.13;3.38;;;12.20;99.90;;;;;;7366459;19;20014;-59
2023/07/05 10:19:49;;;;;;;10.82;3.58;;;12.20;99.90;;;;;;7372780;19;20022;-63
2023/07/05 10:22:25;;;;;;;7.95;3.53;;;12.20;99.90;;;;;;7367835;19;20019;-58
2023/07/05 10:24:57;;;;;;;8.70;2.95;;;12.30;99.90;;;;;;7367703;19;20025;-62
2023/07/05 10:27:32;;;;;;;6.05;2.88;;;12.30;99.90;;;;;;7367973;19;20023;-62
2023/07/05 10:30:03;;;;;;;6.30;2.35;;;12.30;99.90;;;;;;7366297;19;20457;-62
2023/07/05 10:32:31;;;;;;;;;;;12.20;99.90;;;;;;7373031;19;20014;-62
2023/07/05 10:34:59;;;;;;;9.13;3.38;;;12.30;99.90;;;;;;7369473;19;19934;-63
2023/07/05 10:37:35;;;;;;;9.40;3.00;;;12.40;99.90;;;;;;7370566;19;20015;-62
2023/07/05 10:40:04;;;;;;;6.82;2.88;;;12.30;99.90;;;;;;7365868;19;20022;-62
2023/07/05 10:42:32;;;;;;;8.63;3.20;;;12.30;99.90;;;;;;7367663;19;20015;-62
2023/07/05 10:45:00;;;;;;;11.45;3.38;;;12.40;99.90;;;;;;7366918;19;20018;-61
2023/07/05 10:47:29;;;;;;;7.97;2.63;;;12.40;99.90;;;;;;7367975;19;20365;-62
2023/07/05 10:50:05;;;;;;;8.50;2.80;;;12.40;99.90;;;;;;7364825;19;20981;-62
2023/07/05 10:52:35;;;;;;;10.30;3.03;;;12.50;99.90;;;;;;7368801;19;20027;-62
2023/07/05 10:55:21;;;;;;;8.07;2.60;;;12.50;99.90;;;;;;7366411;19;20473;-63
2023/07/05 10:57:53;;;;;;;8.57;3.10;;;12.50;99.90;;;;;;7373537;19;20038;-63
2023/07/05 11:00:37;;;;;;;10.20;2.80;;;12.60;99.90;;;;;;7372889;19;20039;-63
2023/07/05 11:03:15;;;;;;;11.88;3.05;;;12.60;99.90;;;;;;7373140;19;20037;-63
2023/07/05 11:05:51;;;;;;;11.32;3.45;;;12.60;99.90;;;;;;7369222;19;20022;-63
2023/07/05 11:08:25;;;;;;;8.13;2.90;;;12.70;99.90;;;;;;7368470;19;20034;-63
2023/07/05 11:10:53;;;;;;;7.57;2.75;;;12.60;99.90;;;;;;7370229;19;20018;-58
2023/07/05 11:13:20;;;;;;;9.10;2.70;;;12.60;99.90;;;;;;7365934;19;20098;-59
2023/07/05 11:15:47;;;;;;;8.80;2.75;;;12.40;99.90;;;;;;7367370;19;20023;-59
2023/07/05 11:18:19;;;;;;;10.82;3.22;;;12.40;99.90;;;;;;7375217;19;20026;-59
2023/07/05 11:20:47;;;;;;;9.73;3.08;;;12.40;99.90;;;;;;7380345;19;20571;-59
2023/07/05 11:23:43;;;;;;;7.03;2.97;;;12.30;99.90;;;;;;7378881;19;20488;-62
2023/07/05 11:26:29;;;;;;;5.63;2.42;;;12.20;99.90;;;;;;7371241;19;20141;-63
2023/07/05 11:28:56;;;;;;;7.32;2.63;;;12.10;99.90;;;;;;7380955;19;20045;-63
2023/07/05 11:31:28;;;;;;;7.35;2.67;;;12.10;99.90;;;;;;7377657;19;20015;-63
2023/07/05 11:34:20;;;;;;;9.68;2.60;;;11.90;99.90;;;;;;7379471;19;20033;-59
2023/07/05 11:36:51;;;;;;;10.15;2.95;;;11.90;99.90;;;;;;7379930;19;20014;-60
2023/07/05 11:39:37;;;;;;;;;;;11.90;99.90;;;;;;7378849;19;20454;-59
2023/07/05 11:42:12;;;;;;;8.63;2.63;;;11.90;99.90;;;;;;7374697;19;19929;-59
2023/07/05 11:44:40;;;;;;;10.85;2.67;;;11.90;99.90;;;;;;7380668;19;20070;-62
2023/07/05 12:35:26;;;;;;;11.38;3.95;;;12.50;99.90;;;;;;7044100;19;20395;-63
2023/07/05 12:37:54;;;;;;;9.25;3.40;;;12.40;99.90;;;;;;7358447;19;20022;-59
2023/07/05 12:40:32;;;;;;;15.90;3.90;;;12.30;99.90;;;;;;7373042;19;20078;-59
2023/07/05 12:43:04;;;;;;;11.55;3.63;;;12.40;99.90;;;;;;7372063;19;20078;-59
2023/07/05 12:45:36;;;;;;;9.48;3.67;;;12.40;99.90;;;;;;7377397;19;20487;-63
2023/07/05 12:48:20;;;;;;;;;;;12.50;99.90;;;;;;7376315;19;20022;-63
2023/07/05 12:50:47;;;;;;;10.05;3.83;;;12.50;99.90;;;;;;7376125;19;20914;-63
2023/07/05 12:53:21;;;;;;;11.68;4.93;;;12.60;99.90;;;;;;7375867;19;20537;-63
2023/07/05 12:56:05;;;;;;;11.32;4.57;;;12.50;99.90;;;;;;7375399;19;20022;-63
2023/07/05 12:58:35;;;;;;;10.65;3.92;;;12.70;99.90;;;;;;7370652;19;20030;-59
2023/07/05 13:01:02;;;;;;;20.05;4.88;;;12.70;99.90;;;;;;7368960;19;20022;-63
2023/07/05 13:03:31;;;;;;;16.25;4.43;;;12.60;99.90;;;;;;7372254;19;20699;-59
2023/07/05 13:05:58;;;;;;;12.75;4.50;;;12.80;99.90;;;;;;7377249;19;20018;-58
2023/07/05 13:08:28;;;;;;;16.90;5.80;;;12.80;99.90;;;;;;7372271;19;20517;-58
2023/07/05 13:10:56;;;;;;;18.25;5.53;;;12.80;99.90;;;;;;7362169;19;20035;-59
2023/07/05 13:13:34;;;;;;;13.23;4.53;;;12.80;99.90;;;;;;7367707;19;20492;-58
2023/07/05 13:16:30;;;;;;;10.18;4.22;;;12.90;99.90;;;;;;7373099;19;20073;-59
2023/07/05 13:19:06;;;;;;;19.98;5.28;;;12.80;99.90;;;;;;7367247;19;20022;-58
2023/07/05 13:21:43;;;;;;;50.70;36.30;;;12.90;99.90;;;;;;7365916;19;20035;-62
2023/07/05 13:24:17;;;;;;;13.18;5.32;;;12.90;99.90;;;;;;7366672;19;20665;-62
2023/07/05 13:26:45;;;;;;;10.10;4.78;;;12.90;99.90;;;;;;7366794;19;20046;-61
2023/07/05 13:29:22;;;;;;;12.27;4.80;;;12.80;99.90;;;;;;7361711;19;20021;-58
2023/07/05 13:31:50;;;;;;;8.93;3.45;;;12.80;99.90;;;;;;7365549;19;20034;-59
2023/07/05 13:34:17;;;;;;;9.52;4.00;;;12.60;99.90;;;;;;7373622;19;20030;-61
2023/07/05 13:36:47;;;;;;;9.15;3.42;;;12.50;99.90;;;;;;7366005;19;20416;-62
2023/07/05 13:39:15;;;;;;;8.13;3.60;;;12.70;99.90;;;;;;7370198;19;20105;-59
2023/07/05 13:41:43;;;;;;;14.13;4.00;;;12.90;99.90;;;;;;7373667;19;20426;-59
2023/07/05 13:44:15;;;;;;;7.55;3.97;;;13.00;99.90;;;;;;7370623;19;20026;-59
2023/07/05 13:46:41;;;;;;;7.65;3.85;;;13.00;99.90;;;;;;7375291;19;20846;-59